createdAt,value
2024-01-12T00:01:55.192Z,183.43
2024-01-12T00:04:21.640Z,184.63
2024-01-12T00:06:50.129Z,191.93
2024-01-12T00:09:18.964Z,185.10
2024-01-12T00:11:45.668Z,182.45
2024-01-12T00:14:35.523Z,192.55
2024-01-12T00:17:01.937Z,181.38
2024-01-12T00:19:28.315Z,182.68
2024-01-12T00:21:56.120Z,180.77
2024-01-12T00:24:22.624Z,183.18
2024-01-12T00:26:50.335Z,179.27
2024-01-12T00:29:16.855Z,177.30
2024-01-12T00:31:43.284Z,182.25
2024-01-12T00:34:09.767Z,180.07
2024-01-12T00:36:36.160Z,185.43
2024-01-12T00:39:02.569Z,183.90
2024-01-12T00:41:29.204Z,184.15
2024-01-12T00:43:55.813Z,189.88
2024-01-12T00:46:22.302Z,189.43
2024-01-12T00:48:51.256Z,187.10
2024-01-12T00:51:18.818Z,185.13
2024-01-12T00:53:45.773Z,186.93
2024-01-12T00:56:12.273Z,186.90
2024-01-12T01:05:59.194Z,185.63
2024-01-12T01:08:25.817Z,192.57
2024-01-12T01:15:45.475Z,184.43
2024-01-12T01:18:12.388Z,181.52
2024-01-12T01:20:40.170Z,186.95
2024-01-12T01:23:06.636Z,182.90
2024-01-12T01:25:33.101Z,187.40
2024-01-12T01:27:59.559Z,182.77
2024-01-12T01:30:25.981Z,180.45
2024-01-12T01:32:52.590Z,183.52
2024-01-12T01:35:19.204Z,184.50
2024-01-12T01:37:45.976Z,185.88
2024-01-12T01:40:12.528Z,185.52
2024-01-12T01:42:39.707Z,189.23
2024-01-12T01:45:06.344Z,190.48
2024-01-12T01:47:33.085Z,185.80
2024-01-12T01:49:59.682Z,189.05
2024-01-12T01:52:26.909Z,187.13
2024-01-12T01:54:55.129Z,183.45
2024-01-12T01:57:22.152Z,186.50
2024-01-12T01:59:48.804Z,189.85
2024-01-12T02:02:15.668Z,186.60
2024-01-12T02:04:42.161Z,186.05
2024-01-12T02:07:08.778Z,184.35
2024-01-12T02:09:35.457Z,193.38
2024-01-12T02:12:05.278Z,184.40
2024-01-12T02:14:32.143Z,185.48
2024-01-12T02:16:59.001Z,183.80
2024-01-12T02:19:25.556Z,185.77
2024-01-12T02:21:52.099Z,185.77
2024-01-12T02:24:18.686Z,186.32
2024-01-12T02:26:45.441Z,188.52
2024-01-12T02:29:12.628Z,241.65
2024-01-12T02:31:39.914Z,192.43
2024-01-12T02:34:06.342Z,196.73
2024-01-12T02:36:32.782Z,192.65
2024-01-12T02:38:59.490Z,188.27
2024-01-12T02:41:26.185Z,190.63
2024-01-12T02:43:53.194Z,192.00
2024-01-12T02:46:19.714Z,189.65
2024-01-12T02:48:46.322Z,191.43
2024-01-12T02:51:12.817Z,188.00
2024-01-12T02:53:39.432Z,187.40
2024-01-12T02:56:05.993Z,185.52
2024-01-12T02:58:32.623Z,195.45
2024-01-12T03:01:00.676Z,185.25
2024-01-12T03:03:27.590Z,185.30
2024-01-12T03:05:57.129Z,196.95
2024-01-12T03:08:23.717Z,192.35
2024-01-12T03:10:50.314Z,197.25
2024-01-12T03:13:16.897Z,260.13
2024-01-12T03:15:43.390Z,189.95
2024-01-12T03:18:10.160Z,188.77
2024-01-12T03:20:36.950Z,189.45
2024-01-12T03:23:03.611Z,185.50
2024-01-12T03:25:30.154Z,206.02
2024-01-12T03:27:56.739Z,189.32
2024-01-12T03:30:23.422Z,192.02
2024-01-12T03:32:50.097Z,191.10
2024-01-12T03:35:16.958Z,200.50
2024-01-12T03:37:43.585Z,187.43
2024-01-12T03:40:10.539Z,252.80
2024-01-12T03:42:37.100Z,251.80
2024-01-12T03:45:04.074Z,188.90
2024-01-12T03:47:30.748Z,192.52
2024-01-12T03:49:57.635Z,189.73
2024-01-12T03:52:24.194Z,190.32
2024-01-12T03:54:50.637Z,183.50
2024-01-12T03:57:17.056Z,187.40
2024-01-12T03:59:46.170Z,190.07
2024-01-12T04:02:12.860Z,185.35
2024-01-12T04:04:41.547Z,189.05
2024-01-12T04:07:08.044Z,189.77
2024-01-12T04:09:34.583Z,250.93
2024-01-12T04:12:01.044Z,191.57
2024-01-12T04:14:27.513Z,193.23
2024-01-12T04:16:53.956Z,193.15
2024-01-12T04:19:20.571Z,188.85
2024-01-12T04:21:47.027Z,183.00
2024-01-12T04:24:13.421Z,189.27
2024-01-12T04:26:42.905Z,197.32
2024-01-12T04:29:09.401Z,190.63
2024-01-12T04:31:39.558Z,196.75
2024-01-12T04:34:06.135Z,193.20
2024-01-12T04:36:32.601Z,198.15
2024-01-12T04:38:59.044Z,197.55
2024-01-12T04:41:25.588Z,200.80
2024-01-12T04:43:51.976Z,214.02
2024-01-12T04:46:18.438Z,312.33
2024-01-12T04:48:44.963Z,231.02
2024-01-12T04:51:11.749Z,296.15
2024-01-12T04:53:38.550Z,304.58
2024-01-12T04:56:05.140Z,308.23
2024-01-12T04:58:31.567Z,320.63
2024-01-12T05:00:58.129Z,318.23
2024-01-12T05:03:24.909Z,312.52
2024-01-12T05:05:51.800Z,317.20
2024-01-12T05:08:18.403Z,313.80
2024-01-12T05:10:44.977Z,313.90
2024-01-12T05:15:37.997Z,308.63
2024-01-12T05:18:04.837Z,312.08
2024-01-12T05:20:31.482Z,306.73
2024-01-12T05:22:58.101Z,308.90
2024-01-12T05:25:24.659Z,307.10
2024-01-12T05:30:18.018Z,307.63
2024-01-12T05:32:45.449Z,309.67
2024-01-12T05:35:13.042Z,311.70
2024-01-12T05:37:41.575Z,474.35
2024-01-12T05:40:08.771Z,311.70
2024-01-12T05:42:35.311Z,312.45
2024-01-12T05:45:02.058Z,311.38
2024-01-12T05:47:28.711Z,304.38
2024-01-12T05:49:55.715Z,311.30
2024-01-12T05:52:22.319Z,305.27
2024-01-12T05:54:48.858Z,304.80
2024-01-12T05:57:16.474Z,296.00
2024-01-12T05:59:43.080Z,306.85
2024-01-12T06:02:14.732Z,303.63
2024-01-12T06:04:41.471Z,294.85
2024-01-12T06:07:08.125Z,312.02
2024-01-12T06:09:37.624Z,292.75
2024-01-12T06:12:04.486Z,304.52
2024-01-12T06:16:57.832Z,302.90
2024-01-12T06:19:27.020Z,300.92
2024-01-12T06:24:20.261Z,299.67
2024-01-12T06:34:41.043Z,295.55
2024-01-12T06:37:07.580Z,300.55
2024-01-12T06:39:34.413Z,300.58
2024-01-12T06:42:01.055Z,306.02
2024-01-12T06:44:27.561Z,309.50
2024-01-12T06:49:20.760Z,306.55
2024-01-12T06:51:47.856Z,304.95
2024-01-12T06:54:19.201Z,308.23
2024-01-12T06:59:13.287Z,312.08
2024-01-12T07:01:39.858Z,302.67
2024-01-12T07:04:06.454Z,313.13
2024-01-12T07:08:59.707Z,455.27
2024-01-12T07:11:26.268Z,319.55
2024-01-12T07:13:53.404Z,319.25
2024-01-12T07:16:20.085Z,320.08
2024-01-12T07:18:46.661Z,322.63
2024-01-12T07:21:13.336Z,331.25
2024-01-12T07:23:39.920Z,318.83
2024-01-12T07:26:06.505Z,288.73
2024-01-12T07:28:33.036Z,315.10
2024-01-12T07:30:59.631Z,447.52
2024-01-12T07:33:26.312Z,287.58
2024-01-12T07:35:52.866Z,190.93
2024-01-12T07:38:19.945Z,202.32
2024-01-12T07:40:48.305Z,277.60
2024-01-12T07:43:14.922Z,273.98
2024-01-12T07:45:41.395Z,264.30
2024-01-12T07:48:09.024Z,268.55
2024-01-12T07:50:35.650Z,262.02
2024-01-12T07:53:02.042Z,250.77
2024-01-12T07:55:28.645Z,286.80
2024-01-12T07:57:55.115Z,267.67
2024-01-12T08:00:21.537Z,260.00
2024-01-12T08:05:14.831Z,250.13
2024-01-12T08:07:41.371Z,250.57
2024-01-12T08:10:09.626Z,256.13
2024-01-12T08:12:36.546Z,252.00
2024-01-12T08:15:03.120Z,252.40
2024-01-12T08:17:29.610Z,255.85
2024-01-12T08:19:55.983Z,260.83
2024-01-12T08:22:22.422Z,253.45
2024-01-12T08:24:49.010Z,249.80
2024-01-12T08:27:17.114Z,255.43
2024-01-12T08:29:45.429Z,268.60
2024-01-12T08:32:12.947Z,261.23
2024-01-12T08:34:40.879Z,257.08
2024-01-12T08:37:10.512Z,255.93
2024-01-12T08:39:37.360Z,261.63
2024-01-12T08:42:04.003Z,255.50
2024-01-12T08:44:30.477Z,261.83
2024-01-12T08:46:57.219Z,262.65
2024-01-12T08:49:23.813Z,261.08
2024-01-12T08:54:17.460Z,263.83
2024-01-12T09:01:37.471Z,257.80
2024-01-12T09:04:04.145Z,258.63
2024-01-12T09:06:30.899Z,262.35
2024-01-12T09:08:57.441Z,258.45
2024-01-12T09:11:23.914Z,263.88
2024-01-12T09:13:50.659Z,260.70
2024-01-12T09:16:17.085Z,263.38
2024-01-12T09:18:43.962Z,256.05
2024-01-12T09:21:16.101Z,260.52
2024-01-12T09:23:43.865Z,264.73
2024-01-12T09:26:12.464Z,270.00
2024-01-12T09:28:40.034Z,297.70
2024-01-12T09:31:07.650Z,265.73
2024-01-12T09:33:34.480Z,378.77
2024-01-12T09:36:01.346Z,275.45
2024-01-12T09:50:48.689Z,381.67
2024-01-12T09:53:15.313Z,294.20
2024-01-12T09:55:41.890Z,325.65
2024-01-12T09:58:11.292Z,270.73
2024-01-12T10:00:40.556Z,272.38
2024-01-12T10:08:07.842Z,257.23
2024-01-12T10:10:34.595Z,379.48
2024-01-12T10:23:05.589Z,270.83
2024-01-12T10:25:32.388Z,260.15
2024-01-12T10:27:59.445Z,262.50
2024-01-12T10:30:27.686Z,255.85
2024-01-12T10:32:55.293Z,383.88
2024-01-12T10:35:22.180Z,266.77
2024-01-12T10:37:50.066Z,268.58
2024-01-12T10:40:17.447Z,251.70
2024-01-12T10:42:49.923Z,254.45
2024-01-12T11:48:03.510Z,252.68
2024-01-12T11:50:30.130Z,255.50
2024-01-12T11:53:01.588Z,255.07
2024-01-12T11:55:28.471Z,252.98
2024-01-12T11:57:55.864Z,252.63
2024-01-12T12:00:24.640Z,258.65
2024-01-12T12:02:55.274Z,266.67
2024-01-12T12:05:24.081Z,273.27
2024-01-12T12:07:50.852Z,268.90
2024-01-12T12:10:21.926Z,272.67
2024-01-12T12:12:53.696Z,268.92
2024-01-12T12:15:20.242Z,376.33
2024-01-12T12:17:49.140Z,267.20
2024-01-12T12:20:16.720Z,267.08
2024-01-12T12:22:45.425Z,359.67
2024-01-12T12:25:16.011Z,261.25
2024-01-12T12:27:44.862Z,367.05
2024-01-12T12:30:15.378Z,267.70
2024-01-12T12:32:44.604Z,270.15
2024-01-12T12:35:16.171Z,292.73
2024-01-12T12:37:43.074Z,264.55
2024-01-12T12:40:12.394Z,265.70
2024-01-12T12:42:42.996Z,257.80
2024-01-12T12:45:15.035Z,266.00
2024-01-12T12:47:47.029Z,256.80
2024-01-12T12:50:14.254Z,253.68
2024-01-12T12:52:42.572Z,280.40
2024-01-12T12:55:09.755Z,258.35
2024-01-12T12:57:39.388Z,279.80
2024-01-12T13:00:11.004Z,261.90
2024-01-12T13:02:40.778Z,253.02
2024-01-12T13:05:09.483Z,256.90
2024-01-12T13:07:35.977Z,265.08
2024-01-12T13:10:02.548Z,260.40
2024-01-12T13:12:30.790Z,377.48
2024-01-12T13:14:57.500Z,272.00
2024-01-12T13:17:30.094Z,377.90
2024-01-12T13:19:56.908Z,272.63
2024-01-12T13:22:32.865Z,265.73
2024-01-12T13:27:28.198Z,248.27
2024-01-12T13:29:56.097Z,248.63
2024-01-12T13:32:22.806Z,247.18
2024-01-12T13:34:49.433Z,257.25
2024-01-12T13:37:19.724Z,248.20
2024-01-12T13:39:48.940Z,266.35
2024-01-12T13:42:15.837Z,368.90
2024-01-12T13:44:43.746Z,368.45
2024-01-12T13:47:10.426Z,365.92
2024-01-12T13:49:39.487Z,379.80
2024-01-12T13:52:09.854Z,302.15
2024-01-12T13:54:36.382Z,326.85
2024-01-12T13:57:04.847Z,260.75
2024-01-12T13:59:40.848Z,265.67
2024-01-12T14:04:34.583Z,259.10
2024-01-12T14:07:01.578Z,262.73
2024-01-12T14:09:30.224Z,269.65
2024-01-12T14:11:57.290Z,299.67
2024-01-12T14:14:24.705Z,307.38
2024-01-12T14:16:51.405Z,356.67
2024-01-12T14:19:18.489Z,266.75
2024-01-12T14:21:45.391Z,265.35
2024-01-12T14:24:13.385Z,280.40
2024-01-12T14:26:40.606Z,281.90
2024-01-12T14:29:09.166Z,261.50
2024-01-12T14:31:36.225Z,376.42
2024-01-12T14:34:03.410Z,278.45
2024-01-12T14:36:30.403Z,274.73
2024-01-12T14:38:57.039Z,300.35
2024-01-12T14:41:23.761Z,276.05
2024-01-12T14:43:50.307Z,379.00
2024-01-12T14:46:16.918Z,297.30
2024-01-12T14:48:43.753Z,347.83
2024-01-12T14:51:10.468Z,261.55
2024-01-12T14:53:39.310Z,283.15
2024-01-12T14:56:09.476Z,253.50
2024-01-12T14:58:37.507Z,307.77
2024-01-12T15:01:04.357Z,258.52
2024-01-12T15:03:31.110Z,255.63
2024-01-12T15:05:57.780Z,249.63
2024-01-12T15:08:25.384Z,253.40
2024-01-12T15:10:52.230Z,263.35
2024-01-12T15:15:46.625Z,383.52
2024-01-12T15:18:13.456Z,264.38
2024-01-12T15:20:40.266Z,258.25
2024-01-12T15:23:07.967Z,260.20
2024-01-12T15:25:34.844Z,252.85
2024-01-12T15:28:01.370Z,248.07
2024-01-12T15:30:28.241Z,258.45
2024-01-12T15:32:56.107Z,251.80
2024-01-12T15:35:23.227Z,247.73
2024-01-12T15:37:49.889Z,243.75
2024-01-12T15:40:16.759Z,248.52
2024-01-12T15:42:48.868Z,253.20
2024-01-12T15:45:18.673Z,272.73
2024-01-12T15:47:45.847Z,259.42
2024-01-12T15:50:13.417Z,247.30
2024-01-12T15:52:40.215Z,331.98
2024-01-12T15:55:08.155Z,254.40
2024-01-12T15:57:34.670Z,276.00
2024-01-12T16:00:01.262Z,264.25
2024-01-12T16:02:28.248Z,266.80
2024-01-12T16:04:54.790Z,252.40
2024-01-12T16:07:21.348Z,255.52
2024-01-12T16:09:47.907Z,381.67
2024-01-12T16:12:14.633Z,372.20
2024-01-12T16:14:43.539Z,263.63
2024-01-12T16:17:10.091Z,261.30
2024-01-12T16:19:48.255Z,304.42
2024-01-12T16:22:15.405Z,256.17
2024-01-12T16:24:42.475Z,261.95
2024-01-12T16:27:09.677Z,266.73
2024-01-12T16:29:38.524Z,273.35
2024-01-12T16:32:05.826Z,309.65
2024-01-12T16:34:32.854Z,267.30
2024-01-12T16:36:59.695Z,262.67
2024-01-12T16:39:26.286Z,369.67
2024-01-12T16:41:57.072Z,260.30
2024-01-12T16:44:26.134Z,368.90
2024-01-12T16:46:55.655Z,269.63
2024-01-12T16:49:22.617Z,313.67
2024-01-12T16:51:49.841Z,270.27
2024-01-12T16:54:16.687Z,259.73
2024-01-12T16:56:43.975Z,277.60
2024-01-12T16:59:13.723Z,256.67
2024-01-12T17:01:44.292Z,276.13
2024-01-12T17:04:10.910Z,257.13
2024-01-12T17:06:41.663Z,249.55
2024-01-12T17:09:09.203Z,368.88
2024-01-12T17:11:36.272Z,266.95
2024-01-12T17:14:03.211Z,254.98
2024-01-12T17:16:34.556Z,250.40
2024-01-12T17:19:01.492Z,270.48
2024-01-12T17:21:28.132Z,386.02
2024-01-12T17:23:55.444Z,366.23
2024-01-12T17:26:23.056Z,271.80
2024-01-12T17:28:50.125Z,259.58
2024-01-12T17:31:17.199Z,256.00
2024-01-12T17:33:43.843Z,261.60
2024-01-12T17:36:10.453Z,263.50
2024-01-12T17:38:37.096Z,256.15
2024-01-12T17:41:04.347Z,275.55
2024-01-12T17:43:31.269Z,263.35
2024-01-12T17:45:58.603Z,286.92
2024-01-12T17:48:25.216Z,259.20
2024-01-12T17:50:51.815Z,256.20
2024-01-12T17:53:18.796Z,253.23
2024-01-12T17:55:46.062Z,257.80
2024-01-12T17:58:12.856Z,260.50
2024-01-12T18:00:40.061Z,274.83
2024-01-12T18:03:06.662Z,263.38
2024-01-12T18:05:33.280Z,282.38
2024-01-12T18:07:59.872Z,267.80
2024-01-12T18:10:26.386Z,259.73
2024-01-12T18:12:53.064Z,264.52
2024-01-12T18:15:19.705Z,294.35
2024-01-12T18:17:48.436Z,352.55
2024-01-12T18:20:15.007Z,254.32
2024-01-12T18:22:41.533Z,257.00
2024-01-12T18:25:09.926Z,249.73
2024-01-12T18:27:39.742Z,243.98
2024-01-12T18:30:07.350Z,253.88
2024-01-12T18:32:34.616Z,246.40
2024-01-12T18:35:01.364Z,256.95
2024-01-12T18:37:27.868Z,245.27
2024-01-12T18:39:54.442Z,248.73
2024-01-12T18:42:21.974Z,245.63
2024-01-12T18:44:48.568Z,364.30
2024-01-12T18:47:15.332Z,353.33
2024-01-12T18:49:41.847Z,258.98
2024-01-12T18:52:08.415Z,340.58
2024-01-12T18:54:34.939Z,354.50
2024-01-12T18:57:02.267Z,260.52
2024-01-12T18:59:28.855Z,262.38
2024-01-12T19:01:56.112Z,257.77
2024-01-12T19:04:23.243Z,246.45
2024-01-12T19:06:49.785Z,287.65
2024-01-12T19:09:18.171Z,259.92
2024-01-12T19:11:45.768Z,263.55
2024-01-12T19:14:13.531Z,281.05
2024-01-12T19:16:40.250Z,319.45
2024-01-12T19:19:07.060Z,315.83
2024-01-12T19:21:33.784Z,259.67
2024-01-12T19:24:00.619Z,356.17
2024-01-12T19:26:27.349Z,273.77
2024-01-12T19:28:53.982Z,296.02
2024-01-12T19:31:24.122Z,286.35
2024-01-12T19:33:51.699Z,348.08
2024-01-12T19:36:19.009Z,286.58
2024-01-12T19:38:45.785Z,318.92
2024-01-12T19:41:21.268Z,302.42
2024-01-12T19:43:50.334Z,266.00
2024-01-12T19:46:17.851Z,273.10
2024-01-12T19:48:45.029Z,330.77
2024-01-12T19:51:11.796Z,294.92
2024-01-12T19:53:38.422Z,332.45
2024-01-12T19:56:05.154Z,268.38
2024-01-12T19:58:39.177Z,311.75
2024-01-12T20:01:10.832Z,293.55
2024-01-12T20:03:40.575Z,327.85
2024-01-12T20:06:07.420Z,268.25
2024-01-12T20:08:34.168Z,325.10
2024-01-12T20:11:02.304Z,350.92
2024-01-12T20:13:30.113Z,271.27
2024-01-12T20:15:59.201Z,262.25
2024-01-12T20:18:25.935Z,286.67
2024-01-12T20:20:52.643Z,286.85
2024-01-12T20:23:19.248Z,288.33
2024-01-12T20:25:45.754Z,273.27
2024-01-12T20:28:12.852Z,270.95
2024-01-12T20:30:39.779Z,274.15
2024-01-12T20:33:06.660Z,269.75
2024-01-12T20:35:33.615Z,318.08
2024-01-12T20:38:00.211Z,322.80
2024-01-12T20:40:26.816Z,330.25
2024-01-12T20:42:54.539Z,272.90
2024-01-12T20:45:21.152Z,322.08
2024-01-12T20:47:47.989Z,246.55
2024-01-12T20:50:16.255Z,266.88
2024-01-12T20:52:42.752Z,285.15
2024-01-12T20:55:09.757Z,297.48
2024-01-12T20:57:36.312Z,281.23
2024-01-12T21:00:04.164Z,318.45
2024-01-12T21:02:30.861Z,294.75
2024-01-12T21:04:57.436Z,275.98
2024-01-12T21:07:24.043Z,263.30
2024-01-12T21:09:50.645Z,324.02
2024-01-12T21:12:17.583Z,274.70
2024-01-12T21:14:44.306Z,283.52
2024-01-12T21:17:10.812Z,270.13
2024-01-12T21:19:38.097Z,274.45
2024-01-12T21:22:04.878Z,263.00
2024-01-12T21:24:31.366Z,324.75
2024-01-12T21:26:57.875Z,270.55
2024-01-12T21:29:24.675Z,271.20
2024-01-12T21:31:51.344Z,273.83
2024-01-12T21:34:17.977Z,323.52
2024-01-12T21:36:44.816Z,322.80
2024-01-12T21:39:13.253Z,337.73
2024-01-12T21:41:40.009Z,257.42
2024-01-12T21:44:06.855Z,280.33
2024-01-12T21:46:34.434Z,338.73
2024-01-12T21:49:01.646Z,273.20
2024-01-12T21:51:28.449Z,328.95
2024-01-12T21:53:55.059Z,278.27
2024-01-12T21:56:23.484Z,332.77
2024-01-12T21:58:50.764Z,280.13
2024-01-12T22:01:17.340Z,275.55
2024-01-12T22:03:44.511Z,261.38
2024-01-12T22:06:11.311Z,258.13
2024-01-12T22:08:38.045Z,325.17
2024-01-12T22:11:04.537Z,258.52
2024-01-12T22:13:31.012Z,279.10
2024-01-12T22:15:57.617Z,296.95
2024-01-12T22:18:24.370Z,334.95
2024-01-12T22:20:52.691Z,269.98
2024-01-12T22:23:19.400Z,289.42
2024-01-12T22:25:45.944Z,266.08
2024-01-12T22:28:12.434Z,247.52
2024-01-12T22:30:38.999Z,264.02
2024-01-12T22:33:06.164Z,297.88
2024-01-12T22:35:32.839Z,261.20
2024-01-12T22:37:59.405Z,259.77
2024-01-12T22:40:25.933Z,343.02
2024-01-12T22:42:52.475Z,271.80
2024-01-12T22:45:19.043Z,282.35
2024-01-12T22:47:45.919Z,317.85
2024-01-12T22:50:12.601Z,262.60
2024-01-12T22:52:39.223Z,273.58
2024-01-12T22:55:06.395Z,272.52
2024-01-12T22:57:32.938Z,298.13
2024-01-12T22:59:59.548Z,266.95
2024-01-12T23:02:27.598Z,318.77
2024-01-12T23:04:55.130Z,280.38
2024-01-12T23:07:21.641Z,270.35
2024-01-12T23:09:48.274Z,266.50
2024-01-12T23:12:14.883Z,321.58
2024-01-12T23:14:41.443Z,361.65
2024-01-12T23:17:09.076Z,265.20
2024-01-12T23:19:38.753Z,252.10
2024-01-12T23:22:05.320Z,325.08
2024-01-12T23:24:31.944Z,275.80
2024-01-12T23:26:58.540Z,259.33
2024-01-12T23:29:29.560Z,261.50
2024-01-12T23:31:56.813Z,286.00
2024-01-12T23:34:23.701Z,285.35
2024-01-12T23:36:50.348Z,305.67
2024-01-12T23:39:16.901Z,309.08
2024-01-12T23:41:43.449Z,255.70
2024-01-12T23:44:10.266Z,259.00
2024-01-12T23:46:36.894Z,378.65
2024-01-12T23:49:03.617Z,295.80
2024-01-12T23:51:30.426Z,291.05
2024-01-12T23:53:56.982Z,270.95
2024-01-12T23:56:23.605Z,298.77
2024-01-12T23:58:50.179Z,263.48
